Time;durP1;ratioP1;P1;durP2;ratioP2;P2;SDS_P1;SDS_P2;PMS_P1;PMS_P2;Temp;Humidity;BMP_temperature;BMP_pressure;BME280_temperature;BME280_humidity;BME280_pressure;Samples;Min_cycle;Max_cycle;Signal;HPM_P1;HPM_P2
2023/12/11 00:01:12;;;;;;;20.80;9.70;;;;;;;1.45;77.30;98522.99;105461;1255;96585;-71
2023/12/11 00:03:40;;;;;;;21.40;9.90;;;;;;;1.45;77.34;98519.71;105530;1257;107232;-70
2023/12/11 00:06:07;;;;;;;21.90;9.40;;;;;;;1.45;77.37;98515.15;105476;1256;97535;-71
2023/12/11 00:08:34;;;;;;;19.00;8.70;;;;;;;1.45;77.20;98503.08;105406;1265;96670;-72
2023/12/11 00:11:01;;;;;;;20.00;9.30;;;;;;;1.46;77.45;98503.92;105469;1256;96622;-72
2023/12/11 00:13:27;;;;;;;21.40;8.70;;;;;;;1.47;77.14;98506.16;105465;1251;96603;-71
2023/12/11 00:15:54;;;;;;;21.10;10.30;;;;;;;1.46;77.40;98508.12;105105;1254;97537;-70
2023/12/11 00:18:20;;;;;;;18.80;8.90;;;;;;;1.44;77.28;98508.91;105249;1257;96691;-71
2023/12/11 00:20:47;;;;;;;19.20;8.60;;;;;;;1.42;77.37;98515.98;105524;1257;96752;-71
2023/12/11 11:03:53;;;;;;;20.70;8.40;;;;;;;2.74;75.87;98058.54;102968;1289;636979;-77
2023/12/11 11:06:22;;;;;;;20.90;9.40;;;;;;;2.73;75.82;98060.87;105578;1269;94304;-78
2023/12/11 11:09:19;;;;;;;23.70;9.70;;;;;;;2.74;75.94;98062.02;105837;1277;94255;-80
2023/12/11 11:11:53;;;;;;;21.50;9.80;;;;;;;2.77;76.02;98064.14;106021;1269;107311;-81
2023/12/11 11:14:44;;;;;;;22.30;9.40;;;;;;;2.78;75.99;98061.65;105662;1270;94601;-77
2023/12/11 11:17:11;;;;;;;21.90;8.70;;;;;;;2.77;75.96;98059.40;105764;1267;108931;-76
2023/12/11 11:20:18;;;;;;;20.10;8.80;;;;;;;2.73;75.46;98054.21;105781;1277;94244;-80
2023/12/11 11:22:49;;;;;;;24.00;10.00;;;;;;;2.67;75.59;98054.20;106171;1267;94302;-78
2023/12/11 11:25:27;;;;;;;23.10;10.10;;;;;;;2.63;75.65;98054.41;105984;1266;94299;-77
2023/12/11 11:27:54;;;;;;;23.40;10.30;;;;;;;2.62;75.77;98049.56;105800;1276;95127;-77
2023/12/11 11:30:45;;;;;;;28.70;11.20;;;;;;;2.63;75.79;98043.05;106032;1264;95093;-75
2023/12/11 11:33:12;;;;;;;22.70;10.80;;;;;;;2.62;75.81;98044.48;104807;1267;95261;-76
2023/12/11 11:35:48;;;;;;;22.10;9.10;;;;;;;2.63;75.70;98043.02;105803;1267;95244;-79
2023/12/11 11:38:20;;;;;;;22.70;10.20;;;;;;;2.62;75.70;98037.29;105965;1257;108510;-78
2023/12/11 11:40:48;;;;;;;24.60;10.20;;;;;;;2.62;75.97;98039.07;105532;1260;95425;-74
2023/12/11 11:43:15;;;;;;;22.60;10.20;;;;;;;2.63;76.00;98032.90;105584;1254;107278;-73
2023/12/11 11:45:43;;;;;;;21.30;9.80;;;;;;;2.64;75.82;98032.28;105246;1257;95303;-72
2023/12/11 11:48:09;;;;;;;24.80;10.70;;;;;;;2.65;76.00;98035.36;105287;1260;95266;-74
2023/12/11 11:50:50;;;;;;;22.90;9.80;;;;;;;2.65;75.64;98034.49;105505;1259;95572;-75
2023/12/11 11:53:18;;;;;;;24.90;11.60;;;;;;;2.64;75.66;98037.92;105465;1258;95944;-73
2023/12/11 11:55:45;;;;;;;23.90;10.50;;;;;;;2.62;75.87;98034.89;105345;1261;107597;-74
2023/12/11 11:58:14;;;;;;;25.30;11.90;;;;;;;2.62;75.98;98029.64;105754;1265;95387;-75
2023/12/11 12:00:41;;;;;;;27.60;12.20;;;;;;;2.63;75.84;98031.82;105791;1251;95226;-74
2023/12/11 12:03:08;;;;;;;24.90;10.70;;;;;;;2.61;75.82;98033.86;105753;1254;95252;-73
2023/12/11 12:05:36;;;;;;;23.80;10.20;;;;;;;2.61;75.99;98038.95;105744;1256;95177;-74
2023/12/11 12:08:08;;;;;;;23.40;10.50;;;;;;;2.62;76.00;98036.63;105765;1258;107695;-73
2023/12/11 12:10:35;;;;;;;24.20;11.30;;;;;;;2.56;75.64;98038.70;105681;1251;95196;-73
2023/12/11 12:13:03;;;;;;;24.30;10.00;;;;;;;2.53;75.81;98039.56;105836;1254;95275;-75
2023/12/11 12:15:41;;;;;;;25.50;11.00;;;;;;;2.52;75.92;98031.87;105615;1254;109003;-74
2023/12/11 12:18:10;;;;;;;34.80;16.60;;;;;;;2.51;75.88;98039.84;105681;1251;95258;-73
2023/12/11 12:20:37;;;;;;;23.70;11.30;;;;;;;2.48;75.63;98042.77;105576;1257;107161;-74
2023/12/11 12:23:07;;;;;;;25.70;12.20;;;;;;;2.44;75.71;98041.49;105692;1254;95347;-75
2023/12/11 12:25:35;;;;;;;27.20;12.40;;;;;;;2.37;75.78;98038.01;105809;1256;95352;-74
2023/12/11 12:28:04;;;;;;;24.40;10.90;;;;;;;2.33;75.86;98034.73;105759;1254;107967;-75
2023/12/11 12:30:32;;;;;;;23.80;11.10;;;;;;;2.31;75.90;98033.81;105738;1256;95461;-72
2023/12/11 12:33:00;;;;;;;29.10;12.70;;;;;;;2.29;75.88;98036.16;105845;1254;107647;-74
2023/12/11 12:35:28;;;;;;;26.20;12.00;;;;;;;2.28;75.97;98029.91;105629;1254;95169;-73
2023/12/11 12:37:56;;;;;;;27.80;11.70;;;;;;;2.28;76.04;98023.65;105714;1254;95267;-76
2023/12/11 12:40:23;;;;;;;28.70;14.00;;;;;;;2.27;76.13;98019.31;105614;1254;109388;-73
2023/12/11 12:42:50;;;;;;;24.30;11.20;;;;;;;2.26;75.88;98015.35;105628;1258;95719;-75
2023/12/11 12:45:28;;;;;;;24.30;11.20;;;;;;;2.21;75.90;98014.02;105783;1265;95279;-77
2023/12/11 12:48:04;;;;;;;25.50;11.80;;;;;;;2.17;75.97;98009.89;105735;1256;95387;-75
2023/12/11 12:50:32;;;;;;;25.50;11.80;;;;;;;2.15;76.09;98012.11;105845;1256;95262;-73
2023/12/11 12:53:13;;;;;;;24.30;10.60;;;;;;;2.14;76.03;98021.63;106095;1251;108213;-75
2023/12/11 12:55:40;;;;;;;26.20;12.20;;;;;;;2.15;76.02;98022.80;105629;1251;96231;-74
2023/12/11 12:58:07;;;;;;;30.00;13.70;;;;;;;2.14;76.03;98024.36;106303;1251;95339;-75
2023/12/11 13:00:34;;;;;;;27.80;11.90;;;;;;;2.14;76.43;98021.63;106455;1256;95256;-75
2023/12/11 13:03:03;;;;;;;27.10;12.30;;;;;;;2.13;76.20;98022.71;106670;1250;95195;-76
2023/12/11 13:05:45;;;;;;;29.30;13.80;;;;;;;2.11;76.18;98024.91;106378;1251;110383;-75
2023/12/11 13:08:14;;;;;;;27.20;12.70;;;;;;;2.09;76.16;98023.80;106269;1254;95278;-75
2023/12/11 13:10:58;;;;;;;26.70;11.80;;;;;;;2.06;76.36;98022.52;106366;1254;106221;-76
2023/12/11 13:13:25;;;;;;;26.70;10.90;;;;;;;2.03;76.40;98019.21;106704;1254;95252;-76
2023/12/11 13:15:52;;;;;;;23.90;10.20;;;;;;;2.00;76.14;98017.27;107003;1254;95208;-74
2023/12/11 13:18:19;;;;;;;25.30;10.30;;;;;;;1.99;76.28;98014.73;105722;1254;95308;-77
2023/12/11 13:20:47;;;;;;;26.10;11.60;;;;;;;1.99;76.38;98015.27;107006;1250;95240;-74
2023/12/11 13:23:13;;;;;;;24.70;10.80;;;;;;;2.00;76.28;98016.60;106821;1254;95342;-75
2023/12/11 13:25:40;;;;;;;26.50;11.00;;;;;;;2.01;76.37;98020.91;106318;1254;95337;-75
2023/12/11 13:28:06;;;;;;;29.70;13.00;;;;;;;2.00;76.40;98019.73;106659;1251;95268;-74
2023/12/11 13:30:33;;;;;;;26.00;11.60;;;;;;;1.99;76.43;98020.31;106046;1250;95405;-74
2023/12/11 13:32:59;;;;;;;25.80;11.30;;;;;;;1.99;76.22;98019.79;106525;1251;95355;-77
2023/12/11 13:35:26;;;;;;;26.70;12.00;;;;;;;2.01;76.29;98021.80;106983;1254;95239;-75
2023/12/11 13:37:53;;;;;;;27.90;13.40;;;;;;;2.00;76.29;98018.85;106436;1264;95175;-73
2023/12/11 13:40:20;;;;;;;27.70;12.50;;;;;;;2.00;76.47;98017.14;106923;1252;96043;-77
2023/12/11 13:42:47;;;;;;;27.90;12.40;;;;;;;1.98;76.36;98015.99;107015;1254;108406;-77
2023/12/11 13:45:14;;;;;;;24.70;10.70;;;;;;;1.96;76.24;98014.54;106872;1254;95333;-77
2023/12/11 13:47:40;;;;;;;25.60;10.70;;;;;;;1.95;76.38;98010.73;106587;1250;95197;-73
2023/12/11 13:50:10;;;;;;;26.00;12.20;;;;;;;1.96;76.60;98015.95;105724;1254;95533;-71
2023/12/11 13:52:44;;;;;;;25.60;11.60;;;;;;;1.94;76.52;98017.80;105821;1263;95246;-75
2023/12/11 13:55:10;;;;;;;26.10;10.90;;;;;;;1.90;76.54;98018.34;105668;1257;107858;-75
2023/12/11 13:57:37;;;;;;;27.50;12.70;;;;;;;1.90;76.52;98021.50;105876;1251;95255;-75
2023/12/11 14:00:04;;;;;;;27.30;12.30;;;;;;;1.89;76.62;98024.52;105816;1250;95163;-75
2023/12/11 14:02:30;;;;;;;26.80;11.40;;;;;;;1.88;76.43;98028.94;105769;1254;95264;-74
2023/12/11 14:05:17;;;;;;;29.00;12.90;;;;;;;1.84;76.55;98031.05;105763;1253;96213;-73
2023/12/11 14:07:44;;;;;;;27.80;12.60;;;;;;;1.82;76.44;98029.79;105886;1269;95217;-79
2023/12/11 14:10:11;;;;;;;26.20;11.90;;;;;;;1.80;76.47;98031.63;105512;1259;95616;-75
2023/12/11 14:12:38;;;;;;;24.90;11.60;;;;;;;1.79;76.47;98029.62;105824;1251;95304;-75
2023/12/11 14:15:05;;;;;;;25.40;11.30;;;;;;;1.77;76.54;98036.17;105452;1257;95329;-73
2023/12/11 14:17:32;;;;;;;26.00;11.90;;;;;;;1.74;76.80;98039.12;105933;1254;95268;-73
2023/12/11 14:19:58;;;;;;;27.10;12.40;;;;;;;1.71;76.74;98048.54;105713;1254;95330;-74
2023/12/11 14:22:25;;;;;;;24.90;11.40;;;;;;;1.69;76.59;98065.08;106101;1254;95262;-76
2023/12/11 14:24:52;;;;;;;26.40;12.00;;;;;;;1.66;76.50;98058.95;105528;1255;95355;-73
2023/12/11 14:27:19;;;;;;;24.20;10.50;;;;;;;1.63;76.87;98058.34;105755;1254;96614;-72
2023/12/11 14:29:45;;;;;;;28.70;13.00;;;;;;;1.62;76.86;98057.95;105697;1252;96206;-73
2023/12/11 14:32:12;;;;;;;26.40;11.10;;;;;;;1.58;77.05;98055.16;105529;1254;95268;-72
2023/12/11 14:34:41;;;;;;;28.00;12.40;;;;;;;1.55;76.95;98057.40;105687;1251;107950;-73
2023/12/11 14:37:10;;;;;;;24.80;11.00;;;;;;;1.53;76.95;98054.20;105755;1253;96097;-76
2023/12/11 14:39:40;;;;;;;25.50;11.00;;;;;;;1.50;77.13;98051.89;105733;1257;107056;-74
2023/12/11 14:42:06;;;;;;;27.90;12.70;;;;;;;1.48;76.86;98049.56;105728;1254;96370;-71
2023/12/11 14:44:34;;;;;;;26.80;12.30;;;;;;;1.45;77.27;98042.52;105592;1256;95265;-74
2023/12/11 14:47:01;;;;;;;27.50;12.00;;;;;;;1.45;77.20;98046.58;105743;1255;95233;-69
2023/12/11 14:49:27;;;;;;;27.30;12.30;;;;;;;1.44;77.21;98043.30;105370;1258;95192;-70
2023/12/11 14:51:54;;;;;;;29.60;13.00;;;;;;;1.42;77.13;98044.45;105439;1257;95357;-71
2023/12/11 14:54:20;;;;;;;29.10;13.40;;;;;;;1.40;77.09;98041.61;105711;1257;96334;-71
2023/12/11 14:56:47;;;;;;;29.10;13.20;;;;;;;1.37;77.07;98038.09;105539;1254;108148;-70
2023/12/11 14:59:14;;;;;;;30.00;13.80;;;;;;;1.32;77.05;98037.77;105781;1250;95608;-71
2023/12/11 15:01:40;;;;;;;29.00;13.60;;;;;;;1.29;77.37;98027.09;105746;1251;95930;-69
2023/12/11 15:04:07;;;;;;;29.40;13.90;;;;;;;1.28;76.99;98037.48;105692;1257;95271;-70
2023/12/11 15:06:33;;;;;;;30.90;14.80;;;;;;;1.27;77.29;98035.26;105542;1254;95188;-70
2023/12/11 15:09:00;;;;;;;29.90;12.90;;;;;;;1.25;77.50;98035.02;105555;1256;95324;-70
2023/12/11 15:11:27;;;;;;;29.00;14.00;;;;;;;1.26;77.58;98030.78;105423;1257;95354;-70
2023/12/11 15:13:54;;;;;;;29.10;13.20;;;;;;;1.28;77.47;98028.05;105612;1254;96669;-70
2023/12/11 15:16:21;;;;;;;29.60;13.50;;;;;;;1.30;77.60;98030.38;105744;1250;96597;-71
2023/12/11 15:18:48;;;;;;;29.60;13.80;;;;;;;1.33;77.66;98026.75;105470;1254;96705;-69
2023/12/11 15:21:16;;;;;;;32.50;14.90;;;;;;;1.35;77.52;98020.19;105351;1254;96645;-72
2023/12/11 15:23:44;;;;;;;28.50;13.70;;;;;;;1.37;77.51;98031.80;105407;1255;97605;-69
2023/12/11 15:26:17;;;;;;;30.20;14.50;;;;;;;1.38;77.49;98026.84;105516;1250;96701;-69
2023/12/11 15:28:44;;;;;;;28.60;12.90;;;;;;;1.39;77.62;98026.07;105572;1253;97153;-70
2023/12/11 15:31:10;;;;;;;27.50;12.30;;;;;;;1.41;77.60;98027.23;105594;1255;96703;-73
2023/12/11 15:33:40;;;;;;;27.80;12.80;;;;;;;1.42;77.75;98029.80;105718;1264;96626;-70
2023/12/11 15:36:14;;;;;;;31.50;14.50;;;;;;;1.42;77.42;98026.44;105733;1265;96607;-69
2023/12/11 15:38:42;;;;;;;29.70;13.50;;;;;;;1.44;77.38;98022.67;108819;1250;94597;-70
2023/12/11 15:41:09;;;;;;;30.30;13.70;;;;;;;1.44;77.61;98030.20;107059;1254;96619;-70
2023/12/11 15:43:36;;;;;;;31.60;15.20;;;;;;;1.44;77.38;98030.70;106295;1251;96514;-70
2023/12/11 15:46:09;;;;;;;31.90;14.90;;;;;;;1.46;77.23;98036.55;106104;1251;96613;-70
2023/12/11 15:48:37;;;;;;;;;;;;;;;1.47;77.73;98036.83;108315;1251;107550;-69
2023/12/11 15:51:17;;;;;;;28.80;14.00;;;;;;;1.47;77.57;98040.48;106136;1251;96606;-68
2023/12/11 15:53:46;;;;;;;30.70;15.00;;;;;;;1.49;77.46;98038.50;105851;1255;96516;-71
2023/12/11 15:56:15;;;;;;;30.30;12.90;;;;;;;1.49;77.47;98038.65;105659;1251;108693;-69
2023/12/11 15:58:42;;;;;;;27.90;14.10;;;;;;;1.48;77.70;98030.83;105747;1254;96593;-70
2023/12/11 16:01:10;;;;;;;29.50;14.10;;;;;;;1.47;77.48;98030.02;105620;1254;96676;-69
2023/12/11 16:03:37;;;;;;;32.80;15.50;;;;;;;1.47;77.40;98028.30;105535;1251;97729;-70
2023/12/11 16:06:04;;;;;;;29.10;13.00;;;;;;;1.45;77.55;98025.58;105472;1254;96587;-71
2023/12/11 16:08:31;;;;;;;28.20;13.30;;;;;;;1.43;77.52;98026.41;105575;1254;96681;-70
2023/12/11 16:10:57;;;;;;;31.30;14.70;;;;;;;1.42;77.51;98032.40;105590;1255;96599;-71
2023/12/11 16:13:24;;;;;;;29.90;14.60;;;;;;;1.41;77.70;98032.09;105814;1255;96597;-69
2023/12/11 16:15:50;;;;;;;30.40;15.10;;;;;;;1.42;77.63;98034.31;105807;1254;96593;-70
2023/12/11 16:18:17;;;;;;;29.30;14.60;;;;;;;1.43;77.75;98036.35;105703;1250;109965;-71
2023/12/11 16:20:44;;;;;;;29.30;15.60;;;;;;;1.44;77.95;98036.48;106040;1252;96612;-69
2023/12/11 16:23:11;;;;;;;29.10;14.20;;;;;;;1.44;77.88;98028.79;105449;1256;96631;-69
2023/12/11 16:25:37;;;;;;;31.20;14.50;;;;;;;1.46;78.00;98030.61;105900;1254;96624;-70
2023/12/11 16:28:21;;;;;;;34.10;16.60;;;;;;;1.47;77.93;98026.00;105606;1254;96743;-69
2023/12/11 16:30:48;;;;;;;34.10;15.30;;;;;;;1.48;78.07;98017.55;105620;1251;96609;-70
2023/12/11 16:33:16;;;;;;;31.70;16.00;;;;;;;1.51;77.97;98012.22;105651;1254;96642;-72
2023/12/11 16:35:42;;;;;;;31.20;15.60;;;;;;;1.52;77.89;98008.45;105640;1251;96661;-71
2023/12/11 16:38:09;;;;;;;31.80;14.50;;;;;;;1.54;77.97;97996.33;105672;1256;96615;-72
2023/12/11 16:40:35;;;;;;;29.70;13.30;;;;;;;1.55;77.98;97995.73;105686;1256;97540;-72
2023/12/11 16:43:02;;;;;;;34.40;15.70;;;;;;;1.57;77.96;98012.75;105645;1253;97839;-74
2023/12/11 16:45:28;;;;;;;36.40;16.80;;;;;;;1.58;78.13;98008.14;105652;1251;96680;-71
2023/12/11 16:47:55;;;;;;;30.00;14.30;;;;;;;1.58;78.36;98005.02;105675;1254;96602;-70
2023/12/11 16:50:23;;;;;;;31.20;16.10;;;;;;;1.59;78.34;97996.40;105793;1254;96603;-70
2023/12/11 16:52:50;;;;;;;32.00;16.20;;;;;;;1.60;77.97;97996.84;105732;1266;96679;-70
2023/12/11 16:55:17;;;;;;;34.50;14.80;;;;;;;1.61;77.87;97993.47;105764;1251;96605;-72
2023/12/11 16:57:44;;;;;;;32.70;15.90;;;;;;;1.62;77.82;97983.48;105657;1264;96630;-70
2023/12/11 17:00:11;;;;;;;30.70;13.70;;;;;;;1.63;78.05;97980.26;105758;1254;97044;-71
2023/12/11 17:02:38;;;;;;;28.50;13.00;;;;;;;1.64;78.08;97989.45;105883;1254;97613;-69
2023/12/11 17:05:05;;;;;;;29.90;13.80;;;;;;;1.66;77.96;97985.56;105783;1253;97507;-72
2023/12/11 17:07:32;;;;;;;27.10;12.80;;;;;;;1.66;78.33;97977.87;105525;1254;96603;-71
2023/12/11 17:09:58;;;;;;;31.90;15.10;;;;;;;1.67;78.21;97977.60;105411;1251;97870;-71
2023/12/11 17:12:27;;;;;;;29.40;14.90;;;;;;;1.68;78.11;97973.55;105822;1250;108883;-70
2023/12/11 17:14:54;;;;;;;30.70;14.70;;;;;;;1.68;78.08;97968.64;105776;1254;96728;-70
2023/12/11 17:17:23;;;;;;;28.50;13.30;;;;;;;1.69;77.74;97968.73;105688;1255;108823;-72
2023/12/11 17:19:50;;;;;;;27.10;13.00;;;;;;;1.70;78.03;97974.48;105648;1264;96677;-71
2023/12/11 17:22:17;;;;;;;31.50;15.90;;;;;;;1.70;78.09;97973.62;105706;1256;96654;-70
2023/12/11 17:24:43;;;;;;;29.30;13.20;;;;;;;1.71;77.77;97971.48;105562;1251;96679;-72
2023/12/11 17:27:10;;;;;;;28.10;12.70;;;;;;;1.70;77.93;97964.85;105599;1250;97283;-71
2023/12/11 17:29:38;;;;;;;37.30;17.30;;;;;;;1.71;78.11;97969.91;105530;1257;96614;-70
2023/12/11 17:32:06;;;;;;;38.80;19.20;;;;;;;1.70;78.05;97968.73;105849;1254;96625;-71
2023/12/11 17:34:33;;;;;;;34.60;16.20;;;;;;;1.68;78.12;97970.21;105759;1258;110010;-70
2023/12/11 17:37:00;;;;;;;34.40;15.30;;;;;;;1.69;78.24;97957.61;105754;1255;96616;-71
2023/12/11 17:39:27;;;;;;;31.90;15.40;;;;;;;1.70;78.03;97964.18;105678;1263;96596;-69
2023/12/11 17:41:53;;;;;;;33.30;14.70;;;;;;;1.71;78.03;97965.16;105445;1254;96683;-70
2023/12/11 17:44:20;;;;;;;28.90;14.20;;;;;;;1.72;77.98;97954.65;105602;1254;96605;-73
2023/12/11 17:46:46;;;;;;;27.50;14.00;;;;;;;1.73;78.02;97949.85;105615;1257;96692;-72
2023/12/11 17:49:12;;;;;;;27.80;13.80;;;;;;;1.74;78.02;97951.87;105813;1254;107235;-70
2023/12/11 17:51:39;;;;;;;28.20;12.70;;;;;;;1.75;77.95;97941.34;105609;1251;96596;-71
2023/12/11 17:54:06;;;;;;;28.60;13.50;;;;;;;1.75;78.08;97937.30;105508;1251;96686;-71
2023/12/11 17:56:32;;;;;;;29.70;13.90;;;;;;;1.75;78.11;97938.53;105640;1256;96661;-74
2023/12/11 17:58:58;;;;;;;32.70;15.50;;;;;;;1.76;78.00;97944.07;105453;1254;96644;-75
2023/12/11 18:01:25;;;;;;;34.30;14.90;;;;;;;1.77;77.97;97942.65;105385;1253;97461;-72
2023/12/11 18:03:51;;;;;;;33.20;15.20;;;;;;;1.78;77.95;97944.52;105743;1251;96619;-71
2023/12/11 18:06:18;;;;;;;30.70;14.00;;;;;;;1.78;78.07;97945.04;105508;1251;97941;-72
2023/12/11 18:08:45;;;;;;;26.60;11.70;;;;;;;1.81;78.04;97948.06;105583;1251;97543;-69
2023/12/11 18:11:12;;;;;;;27.10;13.40;;;;;;;1.81;78.01;97946.66;105533;1254;97584;-68
2023/12/11 18:13:39;;;;;;;28.10;12.60;;;;;;;1.82;77.95;97941.01;105747;1251;97537;-72
2023/12/11 18:16:07;;;;;;;28.00;13.30;;;;;;;1.82;78.20;97947.14;105834;1251;110383;-68
2023/12/11 18:18:34;;;;;;;26.50;11.90;;;;;;;1.82;78.17;97937.69;105766;1251;97540;-71
2023/12/11 18:21:01;;;;;;;27.10;12.00;;;;;;;1.83;77.98;97938.64;105543;1257;97036;-69
2023/12/11 18:23:27;;;;;;;25.70;12.80;;;;;;;1.85;78.23;97934.70;105677;1254;96600;-70
2023/12/11 18:25:54;;;;;;;26.70;12.70;;;;;;;1.86;77.89;97935.70;105644;1254;96677;-71
2023/12/11 18:28:20;;;;;;;24.60;11.50;;;;;;;1.87;78.16;97940.70;105528;1260;96684;-68
2023/12/11 18:30:50;;;;;;;29.10;13.70;;;;;;;1.89;78.05;97938.67;105440;1254;96670;-69
2023/12/11 18:33:17;;;;;;;26.90;12.00;;;;;;;1.89;78.09;97937.94;105542;1250;96680;-68
2023/12/11 18:35:43;;;;;;;27.60;13.00;;;;;;;1.90;77.98;97936.34;105628;1254;96625;-68
2023/12/11 18:38:10;;;;;;;26.50;12.10;;;;;;;1.91;78.15;97936.12;105729;1254;96588;-69
2023/12/11 18:40:37;;;;;;;25.00;11.90;;;;;;;1.91;78.17;97938.70;105799;1254;96613;-69
2023/12/11 18:43:03;;;;;;;25.40;11.50;;;;;;;1.92;78.27;97935.86;105845;1255;96683;-70
2023/12/11 18:45:30;;;;;;;27.30;12.30;;;;;;;1.93;78.05;97938.60;105662;1257;97928;-68
2023/12/11 18:47:56;;;;;;;24.70;11.90;;;;;;;1.95;78.20;97939.41;105692;1254;96647;-69
2023/12/11 18:50:23;;;;;;;26.10;11.50;;;;;;;1.96;78.18;97944.58;105576;1254;96691;-69
2023/12/11 18:52:49;;;;;;;28.20;13.00;;;;;;;1.97;78.12;97939.80;105640;1251;97425;-69
2023/12/11 18:55:15;;;;;;;27.50;13.70;;;;;;;1.99;77.97;97943.71;105420;1254;96877;-69
2023/12/11 18:57:42;;;;;;;26.70;12.10;;;;;;;2.00;78.15;97939.83;105547;1256;96599;-70
2023/12/11 19:00:10;;;;;;;25.40;12.00;;;;;;;2.01;78.45;97936.95;105931;1257;97624;-68
2023/12/11 19:02:37;;;;;;;25.00;12.40;;;;;;;2.03;78.08;97937.53;105657;1254;96618;-69
2023/12/11 19:05:04;;;;;;;23.80;11.30;;;;;;;2.06;78.21;97940.20;105805;1251;96587;-70
2023/12/11 19:07:31;;;;;;;24.30;11.10;;;;;;;2.07;78.11;97929.62;105759;1257;96672;-71
2023/12/11 19:09:59;;;;;;;26.20;12.00;;;;;;;2.09;78.24;97925.34;105779;1251;96686;-70
2023/12/11 19:12:25;;;;;;;23.20;10.30;;;;;;;2.10;78.18;97922.80;105513;1255;96625;-68
2023/12/11 19:14:52;;;;;;;25.30;11.20;;;;;;;2.12;78.25;97918.89;105263;1265;96691;-68
2023/12/11 19:17:19;;;;;;;26.10;11.40;;;;;;;2.13;78.20;97924.27;105502;1254;96680;-70
2023/12/11 19:19:45;;;;;;;24.10;10.80;;;;;;;2.14;78.45;97925.21;105778;1253;96603;-69
2023/12/11 19:22:12;;;;;;;22.50;11.10;;;;;;;2.14;78.29;97925.20;105267;1254;107493;-69
2023/12/11 19:24:38;;;;;;;22.50;10.20;;;;;;;2.15;78.34;97920.48;105303;1255;96656;-71
2023/12/11 19:27:05;;;;;;;25.00;11.00;;;;;;;2.16;78.16;97926.15;105631;1251;96617;-69
2023/12/11 19:29:32;;;;;;;24.50;12.00;;;;;;;2.17;78.53;97931.71;105775;1250;97199;-68
2023/12/11 19:31:59;;;;;;;26.20;12.40;;;;;;;2.18;78.26;97932.50;105707;1254;96664;-70
2023/12/11 19:34:26;;;;;;;22.70;10.30;;;;;;;2.18;78.27;97929.18;105649;1255;96678;-68
2023/12/11 19:36:52;;;;;;;23.90;10.50;;;;;;;2.20;78.19;97932.95;105672;1255;97502;-68
2023/12/11 19:39:19;;;;;;;23.20;11.30;;;;;;;2.22;78.13;97931.27;105459;1257;96832;-69
2023/12/11 19:41:45;;;;;;;22.90;10.60;;;;;;;2.23;78.27;97925.60;105551;1257;96615;-69
2023/12/11 19:44:11;;;;;;;23.30;11.00;;;;;;;2.23;78.07;97922.93;105652;1257;97546;-69
2023/12/11 19:46:45;;;;;;;22.70;10.40;;;;;;;2.26;78.29;97927.91;105609;1256;96543;-69
2023/12/11 19:49:11;;;;;;;;;;;;;;;2.26;78.32;97931.20;105472;1254;109881;-68
2023/12/11 19:51:42;;;;;;;27.80;13.90;;;;;;;2.25;78.25;97932.33;105427;1251;96687;-68
2023/12/11 19:54:08;;;;;;;25.20;11.90;;;;;;;2.24;78.37;97925.90;105801;1255;109126;-69
2023/12/11 19:56:35;;;;;;;23.60;10.10;;;;;;;2.24;78.28;97925.19;106090;1254;97543;-69
2023/12/11 19:59:01;;;;;;;23.60;10.80;;;;;;;2.24;78.28;97917.51;105732;1254;97009;-68
2023/12/11 20:01:29;;;;;;;23.50;11.00;;;;;;;2.24;78.33;97918.17;105790;1250;96632;-73
2023/12/11 20:03:56;;;;;;;23.40;10.60;;;;;;;2.25;78.24;97919.40;105919;1254;97627;-68
2023/12/11 20:06:25;;;;;;;25.20;11.00;;;;;;;2.24;78.08;97918.17;105835;1264;96717;-69
2023/12/11 20:08:52;;;;;;;26.00;12.20;;;;;;;2.24;78.14;97914.34;105975;1254;96651;-68
2023/12/11 20:11:19;;;;;;;25.90;12.50;;;;;;;2.26;78.19;97913.37;105911;1251;96588;-69
2023/12/11 20:13:47;;;;;;;24.30;10.60;;;;;;;2.26;78.25;97908.48;105894;1251;97169;-68
2023/12/11 20:16:13;;;;;;;31.20;14.10;;;;;;;2.26;78.28;97906.68;105864;1256;97266;-69
2023/12/11 20:18:40;;;;;;;34.80;15.50;;;;;;;2.27;78.24;97906.82;106006;1251;96638;-70
2023/12/11 20:21:06;;;;;;;39.90;17.80;;;;;;;2.26;78.31;97904.95;105843;1251;96609;-69
2023/12/11 20:23:32;;;;;;;30.00;12.80;;;;;;;2.25;78.60;97906.23;105554;1251;109575;-69
2023/12/11 20:26:01;;;;;;;28.90;13.30;;;;;;;2.25;78.74;97912.04;105875;1251;96686;-69
2023/12/11 20:28:28;;;;;;;25.90;12.60;;;;;;;2.24;78.59;97911.02;105734;1257;107679;-70
2023/12/11 20:30:55;;;;;;;29.70;12.70;;;;;;;2.24;78.69;97908.59;105622;1254;96626;-68
2023/12/11 20:33:22;;;;;;;22.90;9.80;;;;;;;2.23;79.08;97910.71;105877;1254;96647;-69
2023/12/11 20:35:48;;;;;;;28.10;13.30;;;;;;;2.24;78.65;97903.16;105869;1254;97286;-69
2023/12/11 20:38:15;;;;;;;23.10;10.90;;;;;;;2.24;78.50;97904.89;105736;1254;96617;-70
2023/12/11 20:40:41;;;;;;;23.40;11.00;;;;;;;2.25;78.80;97900.99;105640;1254;96536;-68
2023/12/11 20:43:08;;;;;;;29.30;13.00;;;;;;;2.25;78.70;97905.67;105626;1257;96705;-69
2023/12/11 20:45:34;;;;;;;27.60;11.90;;;;;;;2.26;78.91;97904.09;105502;1254;96619;-69
2023/12/11 20:48:01;;;;;;;30.40;12.90;;;;;;;2.25;78.78;97895.18;105594;1254;98186;-68
2023/12/11 20:50:28;;;;;;;21.90;9.70;;;;;;;2.26;79.08;97896.71;105938;1255;96679;-69
2023/12/11 20:52:55;;;;;;;25.60;10.50;;;;;;;2.26;78.98;97898.52;105696;1254;96584;-69
2023/12/11 20:55:21;;;;;;;26.40;11.90;;;;;;;2.25;78.94;97900.80;105633;1263;97998;-67
2023/12/11 20:57:48;;;;;;;23.00;10.70;;;;;;;2.25;79.18;97904.48;105548;1255;97042;-69
2023/12/11 21:00:15;;;;;;;24.80;12.10;;;;;;;2.23;79.37;97902.66;105782;1263;98426;-70
2023/12/11 21:02:42;;;;;;;22.60;10.20;;;;;;;2.22;79.38;97897.46;105836;1256;96613;-68
2023/12/11 21:05:09;;;;;;;21.70;10.30;;;;;;;2.20;79.38;97903.37;105898;1251;110597;-69
2023/12/11 21:07:37;;;;;;;24.20;10.70;;;;;;;2.19;79.32;97899.05;105728;1251;96686;-69
2023/12/11 21:10:04;;;;;;;23.60;10.20;;;;;;;2.19;79.35;97896.58;105786;1264;97804;-68
2023/12/11 21:12:30;;;;;;;23.80;10.10;;;;;;;2.21;79.23;97890.02;106801;1251;96627;-72
2023/12/11 21:14:57;;;;;;;22.60;9.70;;;;;;;2.22;79.39;97890.70;105771;1255;96680;-68
2023/12/11 21:17:23;;;;;;;21.40;9.80;;;;;;;2.21;79.50;97890.74;105855;1257;96542;-68
2023/12/11 21:19:49;;;;;;;23.90;10.90;;;;;;;2.20;79.65;97889.16;108526;1251;107684;-68
2023/12/11 21:22:16;;;;;;;22.70;10.20;;;;;;;2.21;79.42;97891.95;105968;1255;97884;-69
2023/12/11 21:24:42;;;;;;;21.90;10.20;;;;;;;2.21;79.61;97883.90;105734;1257;96583;-67
2023/12/11 21:27:09;;;;;;;22.70;10.30;;;;;;;2.21;79.31;97893.00;105717;1251;96590;-70
2023/12/11 21:29:35;;;;;;;23.20;10.40;;;;;;;2.22;79.32;97889.42;105701;1257;108200;-69
2023/12/11 21:32:04;;;;;;;22.40;9.60;;;;;;;2.23;79.70;97888.70;105755;1255;96522;-71
2023/12/11 21:34:30;;;;;;;21.10;9.50;;;;;;;2.21;79.38;97889.15;105841;1267;96590;-69
2023/12/11 21:36:57;;;;;;;21.90;9.80;;;;;;;2.22;79.73;97888.90;105782;1254;97004;-68
2023/12/11 21:39:23;;;;;;;20.60;9.10;;;;;;;2.23;79.65;97892.70;105630;1256;97024;-68
2023/12/11 21:41:50;;;;;;;23.10;10.10;;;;;;;2.24;79.87;97897.23;105584;1257;96594;-70
2023/12/11 21:44:16;;;;;;;20.20;9.00;;;;;;;2.24;79.58;97901.59;105814;1257;96634;-69
2023/12/11 21:46:44;;;;;;;23.00;11.00;;;;;;;2.23;79.72;97903.71;105824;1251;97207;-68
2023/12/11 21:49:10;;;;;;;22.10;10.40;;;;;;;2.23;79.74;97904.80;105624;1267;96590;-70
2023/12/11 21:51:37;;;;;;;22.80;9.50;;;;;;;2.22;79.50;97896.96;105736;1257;96773;-69
2023/12/11 21:54:03;;;;;;;22.90;10.00;;;;;;;2.23;79.97;97897.79;105666;1256;97525;-68
2023/12/11 21:56:30;;;;;;;22.60;10.00;;;;;;;2.24;80.00;97897.92;106544;1255;96741;-69
2023/12/11 21:58:57;;;;;;;21.80;9.00;;;;;;;2.23;79.95;97892.20;105520;1256;96637;-69
2023/12/11 22:01:23;;;;;;;21.00;9.30;;;;;;;2.22;79.73;97890.61;105520;1256;96731;-67